2015 PAM (2015066S08170)


On this page: IBTrACS data - Map and Plots - Positions - Intensities - Original source data

Summary

Start Mar 7
End Mar 20
Basin SP
LMI 150 kt
Sources jtwc_sh
nadi
wellington
In WMO? Yes
Previous storm 2015 HALIBA (SI)
Previous in basin 2015 MARCIA (SP)
Concurrent storms 2015 FIFTEEN (SI)
2015 HALIBA (SI)
2015 PAM (SP)
2015 NATHAN (SP)
2015 OLWYN (SI)
2015 BAVI (WP)
2015 REUBEN (SP)
Next in basin 2015 NATHAN (SP)
Next storm 2015 NATHAN (SP)

top of page IBTrACS Data: File Access

No storm imagery available

top of page Plots:

Map of storm track will not appear if FTP is down
Time series of cyclone Maximum Sustained Wind will not appear if FTP is down
Time series of cyclone Minimum Central Pressure will not appear if FTP is down

top of page Track Data:Position

jtwc_sh nadi wellington
Date Lat Lon Lat Lon Lat Lon
2015-03-07 06:00:00 -8.0 169.5
2015-03-07 12:00:00 -8.2 169.0
2015-03-07 18:00:00 -8.4 169.0
2015-03-08 00:00:00 -8.8 168.8
2015-03-08 06:00:00 -8.0 169.7
2015-03-08 12:00:00 -7.5 168.9 -7.8 169.3
2015-03-08 18:00:00 -7.8 169.2 -7.9 168.5
2015-03-09 00:00:00 -8.1 169.6 -8.2 169.4
2015-03-09 06:00:00 -8.5 170.1 -8.4 169.8
2015-03-09 12:00:00 -9.0 170.6 -8.8 170.4
2015-03-09 18:00:00 -9.3 170.5 -9.2 170.4
2015-03-10 00:00:00 -9.7 170.5 -9.7 170.4
2015-03-10 06:00:00 -10.2 170.5 -10.1 170.6
2015-03-10 12:00:00 -10.6 170.1 -10.4 170.2
2015-03-10 18:00:00 -10.8 170.0 -10.9 170.2
2015-03-11 00:00:00 -11.0 169.7 -11.1 169.7
2015-03-11 06:00:00 -11.0 169.8 -11.1 169.4
2015-03-11 12:00:00 -11.3 170.0 -11.4 169.7
2015-03-11 18:00:00 -11.9 170.2 -11.8 170.1
2015-03-12 00:00:00 -12.7 170.1 -12.5 170.2
2015-03-12 06:00:00 -13.4 170.1 -13.4 170.1
2015-03-12 12:00:00 -14.3 169.7 -14.2 169.8
2015-03-12 18:00:00 -15.0 169.3 -14.9 169.2
2015-03-13 00:00:00 -15.9 169.0 -15.7 169.2
2015-03-13 06:00:00 -16.6 168.7 -16.5 168.9
jtwc_sh nadi wellington
2015-03-13 12:00:00 -17.6 168.7 -17.5 168.7
2015-03-13 18:00:00 -19.0 168.9 -18.9 169.0
2015-03-14 00:00:00 -20.5 169.2 -20.4 169.2
2015-03-14 06:00:00 -22.3 170.1 -22.2 170.0
2015-03-14 12:00:00 -24.6 171.1 -24.4 171.0
2015-03-14 18:00:00 -27.0 172.7 -26.8 172.7
2015-03-15 00:00:00 -30.0 174.8 -29.4 175.2
2015-03-15 06:00:00 -31.8 176.7 -32.0 177.7
2015-03-15 12:00:00 -33.8 178.5 -33.5 178.7
2015-03-15 18:00:00 -35.5 -180.0
2015-03-16 00:00:00 -36.8 -179.4
2015-03-16 06:00:00 -38.1 -178.3
2015-03-16 12:00:00 -39.2 -177.4
2015-03-16 18:00:00 -40.4 -176.1
2015-03-17 00:00:00 -42.0 -173.7
2015-03-17 06:00:00 -43.4 -172.3
2015-03-17 12:00:00 -45.1 -171.4
2015-03-17 18:00:00 -46.2 -170.5
2015-03-18 00:00:00 -46.4 -170.6
2015-03-18 06:00:00 -46.3 -169.6
2015-03-18 12:00:00 -46.2 -167.5
2015-03-18 18:00:00 -47.0 -165.0
2015-03-19 00:00:00 -47.0 -163.1
2015-03-19 06:00:00 -46.9 -160.9
jtwc_sh nadi wellington
2015-03-19 12:00:00 -46.0 -158.4
2015-03-19 18:00:00 -45.5 -154.0
2015-03-20 00:00:00 -45.2 -148.0

top of pageTrack Data:Intensity

jtwc_sh nadi wellington
Date Wind Pres Wind Pres Wind Pres
2015-03-07 06:00:00 20. 1000.
2015-03-07 12:00:00 20. 1000.
2015-03-07 18:00:00 20. 1000.
2015-03-08 00:00:00 20. 1001.
2015-03-08 06:00:00 25. 997.
2015-03-08 12:00:00 25. 1004. 25. 999.
2015-03-08 18:00:00 30. 1000. 25. 999.
2015-03-09 00:00:00 30. 1000. 30. 997.
2015-03-09 06:00:00 35. 996. 35. 995.
2015-03-09 12:00:00 45. 989. 35. 994.
2015-03-09 18:00:00 55. 982. 45. 987.
2015-03-10 00:00:00 60. 978. 50. 985.
2015-03-10 06:00:00 65. 974. 60. 975.
2015-03-10 12:00:00 75. 967. 65. 972.
2015-03-10 18:00:00 85. 959. 75. 963.
2015-03-11 00:00:00 100. 948. 80. 958.
2015-03-11 06:00:00 105. 944. 85. 950.
2015-03-11 12:00:00 110. 941. 90. 946.
2015-03-11 18:00:00 115. 937. 90. 946.
2015-03-12 00:00:00 120. 933. 100. 935.
2015-03-12 06:00:00 125. 929. 105. 920.
2015-03-12 12:00:00 135. 922. 120. 921.
2015-03-12 18:00:00 140. 918. 120. 918.
2015-03-13 00:00:00 140. 918. 125. 910.
2015-03-13 06:00:00 150. 911. 130. 904.
jtwc_sh nadi wellington
2015-03-13 12:00:00 150. 911. 135. 899.
2015-03-13 18:00:00 145. 914. 135. 899.
2015-03-14 00:00:00 140. 918. 135. 896.
2015-03-14 06:00:00 135. 922. 125. 910.
2015-03-14 12:00:00 125. 929. 115. 922.
2015-03-14 18:00:00 115. 937. 100. 925.
2015-03-15 00:00:00 95. 952. 90. 935.
2015-03-15 06:00:00 65. 974. 80. 950.
2015-03-15 12:00:00 55. 982. 70. 960.
2015-03-15 18:00:00 70. 960.
2015-03-16 00:00:00 70. 962.
2015-03-16 06:00:00 70. 959.
2015-03-16 12:00:00 70. 956.
2015-03-16 18:00:00 75. 952.
2015-03-17 00:00:00 80. 945.
2015-03-17 06:00:00 80. 944.
2015-03-17 12:00:00 75. 949.
2015-03-17 18:00:00 75. 943.
2015-03-18 00:00:00 70. 948.
2015-03-18 06:00:00 75. 941.
2015-03-18 12:00:00 65. 953.
2015-03-18 18:00:00 65. 949.
2015-03-19 00:00:00 60. 958.
2015-03-19 06:00:00 60. 964.
jtwc_sh nadi wellington
2015-03-19 12:00:00 60. 966.
2015-03-19 18:00:00 50. 968.
2015-03-20 00:00:00 50. 969.

top of page Links to source data

Source Source file Format
jtwc_sh bsh172015.dat ATCF
nadi RSMC-Nadi-2014-15-BT-Data.txt:Line=47:PAM Text table
wellington TC_BT_2006-current.csv:Line=738:PAM Text table